Satellite Precipitation Estimates (TXUS20 KWBC)
Issued by NWS

Home | Current Version | Previous Version | Text Only | Print | Product List | Glossary On
Versions: 1 2
944
SPTD31 TTPP 201534 RRA
SPECI
TTCP 201528Z 11012KT 2400 SHRA FEW010CB BKN016 27/25 Q1012 TEMPO SHRA
RMK CB-SE=



USA.gov is the U.S. government's official web portal to all federal, state and local government web resources and services.